Terminal Aerodrome Forecast
Issued by NWS

Home | Current Version | Previous Version | Text Only | Print | Product List | Glossary On
Versions: 1 2 3 4 5 6 7 8 9 10 11 12 13 14 15 16 17 18 19 20 21 22 23 24 25 26 27 28 29 30 31 32 33 34 35 36 37 38 39 40 41 42 43 44 45 46 47 48 49
000
FTUS45 KBOU 022348 AAA
TAFAPA
TAF AMD
KAPA 022348Z 0300/0324 16010KT P6SM VCTS SCT080CB OVC150
      TEMPO 0300/0302 VRB18G28KT -TSRA BKN080CB
     FM030200 18010KT P6SM FEW080 BKN120
     FM030500 19010KT P6SM SCT120 BKN220
     FM030900 18010KT P6SM FEW120 SCT220
     FM031800 13008KT P6SM SCT120 BKN200
     FM032200 15010KT P6SM VCTS SCT070CB BKN120=

USA.gov is the U.S. government's official web portal to all federal, state and local government web resources and services.